Time;durP1;ratioP1;P1;durP2;ratioP2;P2;SDS_P1;SDS_P2;PMS_P1;PMS_P2;Temp;Humidity;BMP_temperature;BMP_pressure;BME280_temperature;BME280_humidity;BME280_pressure;Samples;Min_cycle;Max_cycle;Signal;HPM_P1;HPM_P2
2023/05/20 00:01:19;;;;;;;;;;;12.50;99.90;;;;;;5113176;28;19916;-46
2023/05/20 00:03:45;;;;;;;;;;;12.50;99.90;;;;;;5117921;27;19918;-47
2023/05/20 00:06:10;;;;;;;;;;;12.50;99.90;;;;;;5134403;27;20002;-47
2023/05/20 00:08:36;;;;;;;;;;;12.50;99.90;;;;;;5133836;27;19914;-47
2023/05/20 00:11:01;;;;;;;;;;;12.50;99.90;;;;;;5134446;27;19907;-44
2023/05/20 00:13:27;;;;;;;;;;;12.50;99.90;;;;;;5133639;27;19925;-46
2023/05/20 00:15:52;;;;;;;;;;;12.50;99.90;;;;;;5134127;27;19908;-45
2023/05/20 00:18:18;;;;;;;;;;;12.40;99.90;;;;;;5134372;27;19972;-44
2023/05/20 00:20:43;;;;;;;;;;;12.40;99.90;;;;;;5133294;27;19918;-46
2023/05/20 00:23:09;;;;;;;;;;;12.40;99.90;;;;;;5134044;27;20374;-47
2023/05/20 00:25:34;;;;;;;;;;;12.40;99.90;;;;;;5134211;27;19999;-45
2023/05/20 00:28:00;;;;;;;;;;;12.40;99.90;;;;;;5133596;27;19907;-45
2023/05/20 00:30:25;;;;;;;;;;;12.40;99.90;;;;;;5134167;27;19958;-44
2023/05/20 00:32:51;;;;;;;;;;;12.40;99.90;;;;;;5134533;27;19994;-44
2023/05/20 00:35:16;;;;;;;;;;;12.40;99.90;;;;;;5116401;27;19926;-44
2023/05/20 00:37:42;;;;;;;;;;;12.40;99.90;;;;;;5113184;28;19915;-45
2023/05/20 00:40:07;;;;;;;;;;;12.30;99.90;;;;;;5113374;28;19916;-45
2023/05/20 00:42:33;;;;;;;;;;;12.40;99.90;;;;;;5112531;28;20461;-45
2023/05/20 00:44:58;;;;;;;;;;;12.40;99.90;;;;;;5124372;27;19925;-46
2023/05/20 00:47:32;;;;;;;;;;;12.40;99.90;;;;;;5133840;27;19915;-46
2023/05/20 00:49:58;;;;;;;;;;;12.40;99.90;;;;;;5133013;27;19956;-44
2023/05/20 00:52:24;;;;;;;;;;;12.50;99.90;;;;;;5133873;27;19911;-45
2023/05/20 00:54:50;;;;;;;;;;;12.50;99.90;;;;;;5133791;27;19950;-46
2023/05/20 00:57:16;;;;;;;;;;;12.50;99.90;;;;;;5133092;27;19908;-45
2023/05/20 00:59:41;;;;;;;;;;;12.50;99.90;;;;;;5133658;27;19960;-44
2023/05/20 01:02:07;;;;;;;;;;;12.60;99.90;;;;;;5133574;28;19915;-44
2023/05/20 01:04:32;;;;;;;;;;;12.60;99.90;;;;;;5132405;28;20283;-45
2023/05/20 01:06:59;;;;;;;;;;;12.60;99.90;;;;;;5133559;28;20263;-45
2023/05/20 01:09:24;;;;;;;;;;;12.60;99.90;;;;;;5124435;28;19912;-44
2023/05/20 01:11:55;;;;;;;;;;;12.70;99.90;;;;;;5112406;28;19908;-44
2023/05/20 01:14:22;;;;;;;;;;;12.70;99.90;;;;;;5113134;28;19974;-48
2023/05/20 01:16:48;;;;;;;;;;;12.70;99.90;;;;;;5112283;28;19912;-45
2023/05/20 01:19:25;;;;;;;;;;;12.60;99.90;;;;;;5112794;28;19908;-45
2023/05/20 01:21:52;;;;;;;;;;;12.60;99.90;;;;;;5112932;28;19951;-46
2023/05/20 01:24:17;;;;;;;;;;;12.60;99.90;;;;;;5112296;28;19915;-44
2023/05/20 01:26:47;;;;;;;;;;;12.60;99.90;;;;;;5112858;28;19908;-45
2023/05/20 01:29:17;;;;;;;;;;;12.60;99.90;;;;;;5112957;28;19969;-44
2023/05/20 01:31:42;;;;;;;;;;;12.50;99.90;;;;;;5112012;28;20017;-44
2023/05/20 01:34:08;;;;;;;;;;;12.50;99.90;;;;;;5112888;28;20373;-44
2023/05/20 01:36:35;;;;;;;;;;;12.50;99.90;;;;;;5112707;28;19908;-44
2023/05/20 01:39:01;;;;;;;;;;;12.50;99.90;;;;;;5111953;28;19920;-44
2023/05/20 01:41:27;;;;;;;;;;;12.50;99.90;;;;;;5112688;28;19945;-44
2023/05/20 01:43:54;;;;;;;;;;;12.40;99.90;;;;;;5112648;28;19908;-44
2023/05/20 01:46:19;;;;;;;;;;;12.40;99.90;;;;;;5111747;28;20374;-45
2023/05/20 01:48:45;;;;;;;;;;;12.40;99.90;;;;;;5112768;28;19981;-43
2023/05/20 01:51:10;;;;;;;;;;;12.40;99.90;;;;;;5112744;28;19908;-45
2023/05/20 01:53:35;;;;;;;;;;;12.40;99.90;;;;;;5111850;28;19960;-44
2023/05/20 01:56:01;;;;;;;;;;;12.40;99.90;;;;;;5113416;28;19912;-44
2023/05/20 01:58:26;;;;;;;;;;;12.40;99.90;;;;;;5116498;28;19914;-46
2023/05/20 02:00:52;;;;;;;;;;;12.40;99.90;;;;;;5115340;28;20362;-46
2023/05/20 02:03:17;;;;;;;;;;;12.40;99.90;;;;;;5116516;28;19908;-44
2023/05/20 02:05:43;;;;;;;;;;;12.40;99.90;;;;;;5135434;27;19908;-44
2023/05/20 02:08:08;;;;;;;;;;;12.40;99.90;;;;;;5136145;27;19986;-45
2023/05/20 02:10:34;;;;;;;;;;;12.40;99.90;;;;;;5136575;27;20600;-44
2023/05/20 02:12:59;;;;;;;;;;;12.30;99.90;;;;;;5136200;27;19936;-45
2023/05/20 02:15:25;;;;;;;;;;;12.30;99.90;;;;;;5135913;27;20030;-45
2023/05/20 02:17:50;;;;;;;;;;;12.30;99.90;;;;;;5136757;27;19912;-44
2023/05/20 02:20:16;;;;;;;;;;;12.30;99.90;;;;;;5135544;27;19911;-46
2023/05/20 02:22:41;;;;;;;;;;;12.30;99.90;;;;;;5136518;27;19919;-44
2023/05/20 02:25:07;;;;;;;;;;;12.30;99.90;;;;;;5136627;27;19907;-43
2023/05/20 02:27:32;;;;;;;;;;;12.30;99.90;;;;;;5135002;27;19931;-44
2023/05/20 02:29:59;;;;;;;;;;;12.40;99.90;;;;;;5135758;27;19942;-47
2023/05/20 02:32:26;;;;;;;;;;;12.40;99.90;;;;;;5136331;27;20278;-45
2023/05/20 02:34:53;;;;;;;;;;;12.30;99.90;;;;;;5135101;27;20444;-44
2023/05/20 02:37:18;;;;;;;;;;;12.30;99.90;;;;;;5136373;27;20195;-43
2023/05/20 02:39:44;;;;;;;;;;;12.30;99.90;;;;;;5135996;27;20511;-47
2023/05/20 02:42:09;;;;;;;;;;;12.30;99.90;;;;;;5135418;27;19975;-43
2023/05/20 02:44:35;;;;;;;;;;;12.20;99.90;;;;;;5136155;27;19907;-46
2023/05/20 02:47:00;;;;;;;;;;;12.20;99.90;;;;;;5136223;27;19908;-46
2023/05/20 02:49:25;;;;;;;;;;;12.20;99.90;;;;;;5135138;27;19914;-44
2023/05/20 02:51:51;;;;;;;;;;;12.20;99.90;;;;;;5136151;27;20366;-45
2023/05/20 02:54:17;;;;;;;;;;;12.10;99.90;;;;;;5136167;27;19911;-45
2023/05/20 02:56:42;;;;;;;;;;;12.10;99.90;;;;;;5135111;27;19908;-44
2023/05/20 02:59:07;;;;;;;;;;;12.10;99.90;;;;;;5116062;27;20014;-45
2023/05/20 03:01:34;;;;;;;;;;;12.10;99.90;;;;;;5115137;28;19915;-45
2023/05/20 03:04:01;;;;;;;;;;;12.10;99.90;;;;;;5114481;28;19915;-45
2023/05/20 03:06:28;;;;;;;;;;;12.20;99.90;;;;;;5115136;28;20435;-45
2023/05/20 03:08:54;;;;;;;;;;;12.10;99.90;;;;;;5114423;28;19947;-45
2023/05/20 03:11:21;;;;;;;;;;;12.10;99.90;;;;;;5114438;28;20332;-46
2023/05/20 03:13:46;;;;;;;;;;;12.00;99.90;;;;;;5115051;28;20270;-45
2023/05/20 03:16:11;;;;;;;;;;;12.00;99.90;;;;;;5115329;28;20411;-45
2023/05/20 03:18:37;;;;;;;;;;;12.00;99.90;;;;;;5114135;28;19908;-47
2023/05/20 03:21:03;;;;;;;;;;;11.90;99.90;;;;;;5114939;28;19922;-47
2023/05/20 03:23:28;;;;;;;;;;;11.90;99.90;;;;;;5114016;28;19919;-45
2023/05/20 03:25:54;;;;;;;;;;;11.80;99.90;;;;;;5114609;28;19912;-44
2023/05/20 03:28:19;;;;;;;;;;;11.80;99.90;;;;;;5126980;27;19941;-46
2023/05/20 03:30:45;;;;;;;;;;;11.80;99.90;;;;;;5133854;27;19938;-46
2023/05/20 03:33:10;;;;;;;;;;;11.80;99.90;;;;;;5135172;27;19953;-45
2023/05/20 03:35:36;;;;;;;;;;;11.80;99.90;;;;;;5134892;27;20274;-46
2023/05/20 03:38:01;;;;;;;;;;;11.80;99.90;;;;;;5134413;27;20270;-44
2023/05/20 03:40:27;;;;;;;;;;;11.80;99.90;;;;;;5134767;27;19911;-46
2023/05/20 03:42:52;;;;;;;;;;;11.80;99.90;;;;;;5135028;27;19914;-44
2023/05/20 03:45:18;;;;;;;;;;;11.70;99.90;;;;;;5133921;27;20273;-45
2023/05/20 03:47:43;;;;;;;;;;;11.80;99.90;;;;;;5134892;27;19914;-45
2023/05/20 03:50:09;;;;;;;;;;;11.70;99.90;;;;;;5134758;27;19952;-44
2023/05/20 03:52:35;;;;;;;;;;;11.70;99.90;;;;;;5134021;27;19914;-44
2023/05/20 03:55:01;;;;;;;;;;;11.70;99.90;;;;;;5134867;27;19907;-45
2023/05/20 03:57:28;;;;;;;;;;;11.70;99.90;;;;;;5130737;27;19934;-44
2023/05/20 03:59:53;;;;;;;;;;;11.70;99.90;;;;;;5113229;28;19952;-45
2023/05/20 04:02:19;;;;;;;;;;;11.70;99.90;;;;;;5114155;28;20316;-46
2023/05/20 04:04:45;;;;;;;;;;;11.70;99.90;;;;;;5114053;28;19908;-45
2023/05/20 04:07:10;;;;;;;;;;;11.70;99.90;;;;;;5112848;28;19919;-45
2023/05/20 04:09:36;;;;;;;;;;;11.70;99.90;;;;;;5113744;27;19912;-45
2023/05/20 04:12:02;;;;;;;;;;;11.70;99.90;;;;;;5113911;28;19908;-45
2023/05/20 04:14:27;;;;;;;;;;;11.70;99.90;;;;;;5119062;27;19915;-44
2023/05/20 04:16:53;;;;;;;;;;;11.70;99.90;;;;;;5142076;27;19915;-45
2023/05/20 04:19:19;;;;;;;;;;;11.80;99.90;;;;;;5138975;27;19911;-46
2023/05/20 04:21:44;;;;;;;;;;;11.80;99.90;;;;;;5154121;27;19925;-45
2023/05/20 04:24:10;;;;;;;;;;;11.80;99.90;;;;;;5155131;27;19952;-44
2023/05/20 04:26:36;;;;;;;;;;;11.90;99.90;;;;;;5154863;27;19907;-45
2023/05/20 04:29:03;;;;;;;;;;;11.90;99.90;;;;;;5136489;27;19933;-45
2023/05/20 04:31:29;;;;;;;;;;;11.90;99.90;;;;;;5134134;27;19915;-44
2023/05/20 04:33:55;;;;;;;;;;;11.90;99.90;;;;;;5133174;27;19926;-45
2023/05/20 04:36:21;;;;;;;;;;;11.90;99.90;;;;;;5133950;27;20343;-45
2023/05/20 04:38:47;;;;;;;;;;;11.90;99.90;;;;;;5134017;27;19908;-45
2023/05/20 04:41:12;;;;;;;;;;;11.90;99.90;;;;;;5133046;27;20379;-45
2023/05/20 04:43:38;;;;;;;;;;;11.90;99.90;;;;;;5133689;27;20374;-45
2023/05/20 04:46:04;;;;;;;;;;;11.90;99.90;;;;;;5133928;27;20009;-45
2023/05/20 04:48:31;;;;;;;;;;;11.90;99.90;;;;;;5133162;27;20354;-45
2023/05/20 04:50:56;;;;;;;;;;;11.90;99.90;;;;;;5133597;27;20352;-45
2023/05/20 04:53:22;;;;;;;;;;;11.90;99.90;;;;;;5133804;27;19950;-44
2023/05/20 04:55:48;;;;;;;;;;;11.90;99.90;;;;;;5132758;27;20393;-45
2023/05/20 04:58:16;;;;;;;;;;;11.90;99.90;;;;;;5124490;27;19912;-44
2023/05/20 05:00:42;;;;;;;;;;;11.90;99.90;;;;;;5112928;28;19912;-44
2023/05/20 05:03:07;;;;;;;;;;;12.00;99.90;;;;;;5112508;28;19914;-44
2023/05/20 05:05:34;;;;;;;;;;;12.00;99.90;;;;;;5113108;28;20373;-45
2023/05/20 05:07:59;;;;;;;;;;;12.00;99.90;;;;;;5127605;28;19911;-45
2023/05/20 05:10:25;;;;;;;;;;;12.00;99.90;;;;;;5132771;28;19930;-45
2023/05/20 05:12:50;;;;;;;;;;;12.00;99.90;;;;;;5133067;28;19907;-46
2023/05/20 05:15:16;;;;;;;;;;;12.10;99.90;;;;;;5133444;28;19949;-44
2023/05/20 05:17:41;;;;;;;;;;;12.20;99.90;;;;;;5132806;28;20369;-44
2023/05/20 05:20:07;;;;;;;;;;;12.20;99.90;;;;;;5133236;28;20323;-46
2023/05/20 05:22:35;;;;;;;;;;;12.20;99.90;;;;;;5133146;28;20006;-45
2023/05/20 05:25:02;;;;;;;;;;;12.30;99.90;;;;;;5132492;28;19911;-46
2023/05/20 05:27:27;;;;;;;;;;;12.30;99.90;;;;;;5129546;28;20331;-47
2023/05/20 05:29:53;;;;;;;;;;;12.30;99.90;;;;;;5107654;28;19916;-45
2023/05/20 05:32:18;;;;;;;;;;;12.30;99.90;;;;;;5115104;28;19912;-45
2023/05/20 05:34:44;;;;;;;;;;;12.40;99.90;;;;;;5116568;28;20294;-47
2023/05/20 05:37:09;;;;;;;;;;;12.40;99.90;;;;;;5114068;28;19951;-45
2023/05/20 05:39:36;;;;;;;;;;;12.40;99.90;;;;;;5127904;27;19911;-45
2023/05/20 05:42:02;;;;;;;;;;;12.40;99.90;;;;;;5129088;27;19973;-46
2023/05/20 05:44:28;;;;;;;;;;;12.40;99.90;;;;;;5126539;27;19919;-46
2023/05/20 05:46:53;;;;;;;;;;;12.40;99.90;;;;;;5137354;27;19911;-45
2023/05/20 05:49:19;;;;;;;;;;;12.50;99.90;;;;;;5137268;27;19918;-45
2023/05/20 05:51:44;;;;;;;;;;;12.50;99.90;;;;;;5122518;27;19959;-46
2023/05/20 05:54:10;;;;;;;;;;;12.50;99.90;;;;;;5116489;28;20286;-45
2023/05/20 05:56:35;;;;;;;;;;;12.50;99.90;;;;;;5129674;27;19918;-46
2023/05/20 05:59:00;;;;;;;;;;;12.60;99.90;;;;;;5136253;27;19907;-47
2023/05/20 06:01:26;;;;;;;;;;;12.50;99.90;;;;;;5136947;27;19961;-46
2023/05/20 06:03:52;;;;;;;;;;;12.60;99.90;;;;;;5137044;27;20250;-45
2023/05/20 06:06:17;;;;;;;;;;;12.60;99.90;;;;;;5116457;27;19919;-45
2023/05/20 06:08:42;;;;;;;;;;;12.60;99.90;;;;;;5116250;28;19908;-45
2023/05/20 06:11:08;;;;;;;;;;;12.70;99.90;;;;;;5116373;28;19918;-45
2023/05/20 06:13:34;;;;;;;;;;;12.70;99.90;;;;;;5115466;28;20370;-46
2023/05/20 06:16:00;;;;;;;;;;;12.70;99.90;;;;;;5124046;27;20374;-46
2023/05/20 06:18:25;;;;;;;;;;;12.70;99.90;;;;;;5125359;27;19927;-45
2023/05/20 06:20:54;;;;;;;;;;;12.80;99.90;;;;;;5134947;27;19930;-48
2023/05/20 06:23:20;;;;;;;;;;;12.80;99.90;;;;;;5133007;27;20313;-45
2023/05/20 06:25:46;;;;;;;;;;;12.90;99.90;;;;;;5136460;27;19908;-45
2023/05/20 06:28:12;;;;;;;;;;;12.90;99.90;;;;;;5130717;27;20013;-45
2023/05/20 06:30:37;;;;;;;;;;;12.90;99.90;;;;;;5136458;27;19998;-45
2023/05/20 06:33:03;;;;;;;;;;;13.00;99.90;;;;;;5136397;27;19914;-44
2023/05/20 06:35:28;;;;;;;;;;;13.00;99.90;;;;;;5135363;27;19968;-45
2023/05/20 06:37:54;;;;;;;;;;;13.10;99.90;;;;;;5136351;27;19908;-45
2023/05/20 06:40:19;;;;;;;;;;;13.20;99.90;;;;;;5135448;27;19911;-44
2023/05/20 06:42:45;;;;;;;;;;;13.20;99.90;;;;;;5134894;27;20007;-47
2023/05/20 06:45:10;;;;;;;;;;;13.20;99.90;;;;;;5136271;27;19974;-46
2023/05/20 06:47:36;;;;;;;;;;;13.30;99.90;;;;;;5135077;27;20468;-45
2023/05/20 06:50:02;;;;;;;;;;;13.40;99.90;;;;;;5136182;27;19907;-46
2023/05/20 06:52:27;;;;;;;;;;;13.40;99.90;;;;;;5135385;27;20002;-44
2023/05/20 06:54:53;;;;;;;;;;;13.40;99.90;;;;;;5144364;27;19911;-48
2023/05/20 06:57:18;;;;;;;;;;;13.50;99.90;;;;;;5143717;27;19958;-45
2023/05/20 06:59:43;;;;;;;;;;;13.50;99.90;;;;;;5135876;27;19911;-45
2023/05/20 07:02:09;;;;;;;;;;;13.60;99.90;;;;;;5135041;27;20428;-46
2023/05/20 07:04:35;;;;;;;;;;;13.70;99.90;;;;;;5135705;27;19908;-45
2023/05/20 07:07:00;;;;;;;;;;;13.70;99.90;;;;;;5135759;27;19908;-47
2023/05/20 07:09:26;;;;;;;;;;;13.80;99.90;;;;;;5134891;27;20273;-46
2023/05/20 07:11:51;;;;;;;;;;;13.80;99.90;;;;;;5142223;27;19955;-47
2023/05/20 07:14:17;;;;;;;;;;;13.90;99.90;;;;;;5142391;27;19907;-45
2023/05/20 07:16:42;;;;;;;;;;;13.90;99.90;;;;;;5134739;27;19920;-46
2023/05/20 07:19:08;;;;;;;;;;;14.00;99.90;;;;;;5148692;27;19907;-47
2023/05/20 07:21:33;;;;;;;;;;;14.00;99.90;;;;;;5144733;27;20442;-44
2023/05/20 07:23:59;;;;;;;;;;;14.10;99.90;;;;;;5141203;27;19915;-48
2023/05/20 07:26:24;;;;;;;;;;;14.20;99.90;;;;;;5156035;27;19911;-48
2023/05/20 07:28:50;;;;;;;;;;;14.30;99.90;;;;;;5152838;27;19907;-45
2023/05/20 07:31:16;;;;;;;;;;;14.30;99.90;;;;;;5133792;27;19915;-45
2023/05/20 07:33:41;;;;;;;;;;;14.40;99.90;;;;;;5138998;27;20403;-45
2023/05/20 07:36:07;;;;;;;;;;;14.50;99.90;;;;;;5113294;27;19912;-45
2023/05/20 07:38:32;;;;;;;;;;;14.50;99.90;;;;;;5137283;27;19911;-46
2023/05/20 07:40:58;;;;;;;;;;;14.60;99.90;;;;;;5148753;27;19920;-47
2023/05/20 07:43:23;;;;;;;;;;;14.60;99.90;;;;;;5147771;27;19915;-46
2023/05/20 07:45:49;;;;;;;;;;;14.80;99.90;;;;;;5151869;27;19918;-45
2023/05/20 07:48:15;;;;;;;;;;;14.80;99.90;;;;;;5139417;27;20046;-46
2023/05/20 07:50:40;;;;;;;;;;;14.90;99.90;;;;;;5137617;27;19934;-45
2023/05/20 07:53:06;;;;;;;;;;;15.00;99.90;;;;;;5117947;27;19915;-45
2023/05/20 07:55:38;;;;;;;;;;;15.10;99.90;;;;;;5134142;27;19959;-46
2023/05/20 07:58:04;;;;;;;;;;;15.10;99.90;;;;;;5140497;27;19998;-49
2023/05/20 08:00:29;;;;;;;;;;;15.20;99.70;;;;;;5134987;27;20022;-50
2023/05/20 08:02:55;;;;;;;;;;;15.30;99.60;;;;;;5135140;27;19907;-46
2023/05/20 08:05:21;;;;;;;;;;;15.40;99.70;;;;;;5134633;27;20042;-47
2023/05/20 08:07:47;;;;;;;;;;;15.40;99.40;;;;;;5135064;27;20002;-49
2023/05/20 08:10:12;;;;;;;;;;;15.50;99.00;;;;;;5139647;27;20415;-47
2023/05/20 08:12:38;;;;;;;;;;;15.60;99.20;;;;;;5155175;27;19907;-45
2023/05/20 08:15:04;;;;;;;;;;;15.70;99.50;;;;;;5155773;27;20249;-47
2023/05/20 08:17:29;;;;;;;;;;;15.70;99.70;;;;;;5155690;27;19925;-46
2023/05/20 08:19:55;;;;;;;;;;;15.80;99.00;;;;;;5155169;27;20353;-45
2023/05/20 08:22:20;;;;;;;;;;;15.90;99.50;;;;;;5137873;27;20273;-46
2023/05/20 08:24:45;;;;;;;;;;;16.00;99.40;;;;;;5134956;27;19915;-47
2023/05/20 08:27:11;;;;;;;;;;;16.10;98.50;;;;;;5134369;27;19907;-48
2023/05/20 08:29:37;;;;;;;;;;;16.20;98.70;;;;;;5134187;27;19912;-47
2023/05/20 08:32:02;;;;;;;;;;;16.30;98.10;;;;;;5140861;27;19919;-46
2023/05/20 08:34:30;;;;;;;;;;;16.30;98.20;;;;;;5153066;27;19919;-47
2023/05/20 08:36:56;;;;;;;;;;;16.40;98.20;;;;;;5155190;27;19907;-46
2023/05/20 08:39:22;;;;;;;;;;;16.50;97.80;;;;;;5155636;27;19911;-46
2023/05/20 08:41:48;;;;;;;;;;;16.50;97.60;;;;;;5154815;27;20315;-47
2023/05/20 08:44:13;;;;;;;;;;;16.60;98.20;;;;;;5155270;27;20349;-47
2023/05/20 08:46:39;;;;;;;;;;;16.70;97.10;;;;;;5155391;27;19958;-46
2023/05/20 08:49:05;;;;;;;;;;;16.80;96.90;;;;;;5154580;27;19907;-48
2023/05/20 08:51:31;;;;;;;;;;;16.80;97.50;;;;;;5155195;27;19960;-47
2023/05/20 08:53:58;;;;;;;;;;;16.90;97.10;;;;;;5154784;27;19911;-46
2023/05/20 08:56:25;;;;;;;;;;;17.00;97.10;;;;;;5155374;27;19914;-46
2023/05/20 08:58:52;;;;;;;;;;;17.10;96.50;;;;;;5155035;27;19907;-46
2023/05/20 09:01:17;;;;;;;;;;;17.20;96.20;;;;;;5154413;27;19927;-45
2023/05/20 09:03:43;;;;;;;;;;;17.20;96.00;;;;;;5155126;27;19922;-48
2023/05/20 09:06:09;;;;;;;;;;;17.40;95.50;;;;;;5154394;27;20386;-46
2023/05/20 09:08:34;;;;;;;;;;;17.40;95.90;;;;;;5154567;27;19990;-46
2023/05/20 09:11:00;;;;;;;;;;;17.50;96.00;;;;;;5140628;27;19912;-45
2023/05/20 09:13:26;;;;;;;;;;;17.60;95.40;;;;;;5113624;28;19922;-46
2023/05/20 09:15:51;;;;;;;;;;;17.70;94.90;;;;;;5113149;28;19912;-47
2023/05/20 09:18:17;;;;;;;;;;;17.70;95.10;;;;;;5112766;28;20325;-46
2023/05/20 09:20:45;;;;;;;;;;;17.80;94.90;;;;;;5113186;28;20460;-47
2023/05/20 09:23:11;;;;;;;;;;;18.00;94.80;;;;;;5113258;28;19908;-44
2023/05/20 09:25:36;;;;;;;;;;;18.00;94.90;;;;;;5113640;28;19994;-46
2023/05/20 09:28:08;;;;;;;;;;;18.10;93.60;;;;;;5113809;28;19921;-47
2023/05/20 09:30:34;;;;;;;;;;;18.20;93.70;;;;;;5112962;28;19916;-46
2023/05/20 09:33:02;;;;;;;;;;;18.20;92.90;;;;;;5113139;28;20244;-47
2023/05/20 09:35:28;;;;;;;;;;;18.20;93.30;;;;;;5112818;28;20354;-45
2023/05/20 09:37:54;;;;;;;;;;;18.30;93.50;;;;;;5112376;28;19912;-45
2023/05/20 09:40:22;;;;;;;;;;;18.40;93.80;;;;;;5112919;28;19945;-45
2023/05/20 09:43:14;;;;;;;;;;;18.50;93.10;;;;;;5111775;28;19916;-45
2023/05/20 09:45:40;;;;;;;;;;;18.60;92.70;;;;;;5108241;28;19916;-45
2023/05/20 09:48:07;;;;;;;;;;;18.60;91.70;;;;;;5113039;28;19960;-46
2023/05/20 09:50:33;;;;;;;;;;;18.80;92.30;;;;;;5112877;28;19912;-48
2023/05/20 09:53:01;;;;;;;;;;;18.90;92.00;;;;;;5127403;28;19908;-46
2023/05/20 09:55:26;;;;;;;;;;;19.00;92.10;;;;;;5133005;28;19911;-46
2023/05/20 09:57:53;;;;;;;;;;;19.00;90.70;;;;;;5133248;28;19914;-44
2023/05/20 10:00:18;;;;;;;;;;;18.90;91.00;;;;;;5133578;28;19908;-45
2023/05/20 10:02:48;;;;;;;;;;;18.80;90.90;;;;;;5133561;28;19912;-45
2023/05/20 10:05:16;;;;;;;;;;;18.80;91.10;;;;;;5133424;28;19907;-45
2023/05/20 10:08:00;;;;;;;;;;;19.00;91.80;;;;;;5133531;28;19907;-46
2023/05/20 10:10:43;;;;;;;;;;;19.10;90.80;;;;;;5114945;28;19912;-46
2023/05/20 10:13:22;;;;;;;;;;;19.00;90.10;;;;;;5104069;28;19912;-45
2023/05/20 10:15:57;;;;;;;;;;;18.90;90.10;;;;;;5113123;28;19915;-47
2023/05/20 10:18:32;;;;;;;;;;;18.80;90.30;;;;;;5115252;28;19911;-45
2023/05/20 10:20:57;;;;;;;;;;;18.80;90.10;;;;;;5116273;28;19919;-46
2023/05/20 10:23:23;;;;;;;;;;;18.80;89.10;;;;;;5116742;28;19995;-45
2023/05/20 10:25:53;;;;;;;;;;;19.00;91.10;;;;;;5116031;28;19907;-45
2023/05/20 10:28:37;;;;;;;;;;;19.10;89.60;;;;;;5116741;28;19998;-46
2023/05/20 10:31:13;;;;;;;;;;;19.20;89.40;;;;;;5116553;28;19915;-46
2023/05/20 10:33:42;;;;;;;;;;;19.10;88.90;;;;;;5115702;28;19908;-46
2023/05/20 10:36:07;;;;;;;;;;;19.10;88.60;;;;;;5116353;28;19908;-45
2023/05/20 10:38:33;;;;;;;;;;;19.00;87.80;;;;;;5116402;28;19931;-45
2023/05/20 10:41:06;;;;;;;;;;;18.90;87.70;;;;;;5121611;27;20018;-45
2023/05/20 10:43:32;;;;;;;;;;;18.90;88.90;;;;;;5136593;27;19922;-45
2023/05/20 10:45:58;;;;;;;;;;;18.90;89.30;;;;;;5136801;27;20296;-45
2023/05/20 10:48:25;;;;;;;;;;;19.00;89.00;;;;;;5136229;27;19907;-45
2023/05/20 10:50:55;;;;;;;;;;;19.20;90.20;;;;;;5136326;27;20019;-44
2023/05/20 10:53:22;;;;;;;;;;;19.50;90.30;;;;;;5136670;27;19914;-46
2023/05/20 10:55:50;;;;;;;;;;;19.90;89.60;;;;;;5135877;27;19918;-46
2023/05/20 10:58:16;;;;;;;;;;;20.30;89.60;;;;;;5136463;27;19914;-44
2023/05/20 11:00:42;;;;;;;;;;;20.60;87.50;;;;;;5135326;27;19919;-45
2023/05/20 11:03:08;;;;;;;;;;;20.80;87.10;;;;;;5136712;27;19907;-44
2023/05/20 11:05:34;;;;;;;;;;;20.80;83.80;;;;;;5136482;27;19907;-47
2023/05/20 11:08:03;;;;;;;;;;;20.90;85.80;;;;;;5135858;27;20297;-44
2023/05/20 11:10:28;;;;;;;;;;;21.10;84.60;;;;;;5135999;27;20270;-45
2023/05/20 11:12:55;;;;;;;;;;;21.30;83.50;;;;;;5136071;27;19907;-45
2023/05/20 11:15:22;;;;;;;;;;;21.60;83.30;;;;;;5135323;27;19926;-45
2023/05/20 11:17:54;;;;;;;;;;;21.70;79.00;;;;;;5136124;27;19937;-46
2023/05/20 11:20:21;;;;;;;;;;;21.90;78.40;;;;;;5135891;27;19911;-46
2023/05/20 11:22:46;;;;;;;;;;;21.80;77.70;;;;;;5134773;27;19916;-44
2023/05/20 11:25:11;;;;;;;;;;;21.60;74.50;;;;;;5135897;27;20288;-44
2023/05/20 11:27:40;;;;;;;;;;;21.40;74.20;;;;;;5135303;27;19907;-45
2023/05/20 11:30:06;;;;;;;;;;;21.40;75.70;;;;;;5134556;27;19914;-44
2023/05/20 11:32:32;;;;;;;;;;;21.30;76.00;;;;;;5134789;27;19907;-45
2023/05/20 11:34:57;;;;;;;;;;;21.30;75.70;;;;;;5135554;27;19923;-45
2023/05/20 11:37:22;;;;;;;;;;;21.10;74.50;;;;;;5135099;27;19946;-44
2023/05/20 11:39:48;;;;;;;;;;;21.00;75.00;;;;;;5124172;27;20293;-45
2023/05/20 11:42:14;;;;;;;;;;;20.90;73.40;;;;;;5145841;27;19918;-44
2023/05/20 11:44:43;;;;;;;;;;;20.80;74.90;;;;;;5131771;27;20311;-45
2023/05/20 11:47:08;;;;;;;;;;;20.70;75.20;;;;;;5141815;27;20010;-44
2023/05/20 11:49:40;;;;;;;;;;;20.60;76.50;;;;;;5140829;27;20341;-44
2023/05/20 11:52:07;;;;;;;;;;;20.60;75.10;;;;;;5144857;27;19998;-45
2023/05/20 11:54:34;;;;;;;;;;;20.50;76.30;;;;;;5132212;27;19957;-44
2023/05/20 11:56:59;;;;;;;;;;;20.40;74.90;;;;;;5142212;27;19917;-45
2023/05/20 11:59:25;;;;;;;;;;;20.30;75.00;;;;;;5143459;27;19912;-45
2023/05/20 12:01:51;;;;;;;;;;;20.30;75.90;;;;;;5127940;27;20365;-44
2023/05/20 12:04:17;;;;;;;;;;;20.50;77.80;;;;;;5134857;27;20023;-47
2023/05/20 12:06:42;;;;;;;;;;;20.80;77.20;;;;;;5129464;27;20239;-44
2023/05/20 12:09:09;;;;;;;;;;;21.10;76.90;;;;;;5133846;27;19908;-44
2023/05/20 12:11:35;;;;;;;;;;;21.10;75.80;;;;;;5132540;27;19954;-45
2023/05/20 12:14:01;;;;;;;;;;;21.00;73.90;;;;;;5122769;27;19914;-44
2023/05/20 12:16:27;;;;;;;;;;;20.80;74.50;;;;;;5127307;27;19911;-44
2023/05/20 12:18:53;;;;;;;;;;;20.70;75.40;;;;;;5120253;27;19911;-46
2023/05/20 12:21:18;;;;;;;;;;;20.60;74.00;;;;;;5127529;27;19964;-44
2023/05/20 12:23:43;;;;;;;;;;;20.70;75.40;;;;;;5119640;27;19915;-44
2023/05/20 12:26:09;;;;;;;;;;;21.00;76.20;;;;;;5112895;28;20294;-44
2023/05/20 12:28:35;;;;;;;;;;;21.00;75.00;;;;;;5114515;27;19918;-44
2023/05/20 12:31:00;;;;;;;;;;;21.00;73.60;;;;;;5134490;27;19911;-47
2023/05/20 12:33:26;;;;;;;;;;;20.90;74.30;;;;;;5124941;27;20399;-45
2023/05/20 12:35:52;;;;;;;;;;;21.00;75.30;;;;;;5130754;27;19972;-44
2023/05/20 12:38:17;;;;;;;;;;;21.20;76.60;;;;;;5133119;27;20450;-45
2023/05/20 12:40:42;;;;;;;;;;;21.30;74.90;;;;;;5130083;27;19915;-46
2023/05/20 12:43:08;;;;;;;;;;;21.30;73.90;;;;;;5132658;27;19924;-44
2023/05/20 12:45:34;;;;;;;;;;;21.40;73.00;;;;;;5132727;27;19918;-45
2023/05/20 12:48:00;;;;;;;;;;;21.70;75.30;;;;;;5132047;27;20369;-45
2023/05/20 12:50:25;;;;;;;;;;;21.80;74.00;;;;;;5133222;27;19911;-44
2023/05/20 12:52:51;;;;;;;;;;;22.20;73.10;;;;;;5132200;27;20384;-47
2023/05/20 12:55:16;;;;;;;;;;;22.60;72.00;;;;;;5131411;27;20361;-45
2023/05/20 12:57:42;;;;;;;;;;;22.70;70.10;;;;;;5132520;27;19912;-45
2023/05/20 13:00:08;;;;;;;;;;;22.60;68.00;;;;;;5130691;27;19911;-46
2023/05/20 13:02:34;;;;;;;;;;;22.30;67.40;;;;;;5112508;27;19969;-45
2023/05/20 13:05:00;;;;;;;;;;;22.10;68.70;;;;;;5127008;27;19915;-46
2023/05/20 13:07:25;;;;;;;;;;;22.00;67.50;;;;;;5131611;27;19915;-45
2023/05/20 13:09:51;;;;;;;;;;;21.80;67.60;;;;;;5117029;28;20285;-46
2023/05/20 13:12:16;;;;;;;;;;;21.80;69.00;;;;;;5132527;28;19916;-44
2023/05/20 13:14:42;;;;;;;;;;;22.00;69.50;;;;;;5124813;28;20263;-47
2023/05/20 13:17:07;;;;;;;;;;;22.20;68.20;;;;;;5123708;28;19964;-45
2023/05/20 13:19:33;;;;;;;;;;;22.70;70.00;;;;;;5132106;28;19915;-46
2023/05/20 13:21:58;;;;;;;;;;;22.70;68.70;;;;;;5131317;27;19960;-48
2023/05/20 13:24:24;;;;;;;;;;;22.70;68.20;;;;;;5153066;27;19950;-46
2023/05/20 13:26:50;;;;;;;;;;;22.60;68.80;;;;;;5152983;27;19989;-43
2023/05/20 13:29:15;;;;;;;;;;;22.50;66.70;;;;;;5143659;27;19921;-45
2023/05/20 13:31:41;;;;;;;;;;;22.30;66.20;;;;;;5133075;28;20377;-45
2023/05/20 13:34:06;;;;;;;;;;;22.20;68.00;;;;;;5132875;28;20274;-45
2023/05/20 13:36:32;;;;;;;;;;;22.40;68.40;;;;;;5132188;28;19927;-46
2023/05/20 13:38:58;;;;;;;;;;;22.80;69.30;;;;;;5132817;28;19968;-45
2023/05/20 13:41:26;;;;;;;;;;;22.90;67.40;;;;;;5133190;28;19937;-46
2023/05/20 13:43:52;;;;;;;;;;;22.70;66.20;;;;;;5132495;28;19911;-44
2023/05/20 13:46:17;;;;;;;;;;;22.50;65.70;;;;;;5132475;28;20014;-45
2023/05/20 13:48:43;;;;;;;;;;;22.50;66.10;;;;;;5133579;28;20330;-45
2023/05/20 13:51:09;;;;;;;;;;;22.50;67.70;;;;;;5123734;28;19912;-45
2023/05/20 13:53:34;;;;;;;;;;;22.40;66.80;;;;;;5116431;28;19911;-47
2023/05/20 13:56:00;;;;;;;;;;;22.30;66.30;;;;;;5117155;28;19919;-46
2023/05/20 13:58:25;;;;;;;;;;;22.20;67.20;;;;;;5116749;28;20274;-45
2023/05/20 14:00:51;;;;;;;;;;;22.30;66.50;;;;;;5117016;28;19916;-45
2023/05/20 14:03:16;;;;;;;;;;;22.30;66.60;;;;;;5117177;28;20255;-47
2023/05/20 14:05:42;;;;;;;;;;;22.20;68.00;;;;;;5116449;28;20248;-46
2023/05/20 14:08:07;;;;;;;;;;;22.60;67.80;;;;;;5116493;28;19908;-49
2023/05/20 14:10:33;;;;;;;;;;;23.00;67.60;;;;;;5116275;28;19908;-47